Terminal Aerodrome Forecast
Issued by NWS

Home | Current Version | Previous Version | Text Only | Print | Product List | Glossary On
Versions: 1 2 3 4 5 6 7 8 9 10 11 12 13 14 15 16 17 18 19 20 21 22 23
000
FTUS43 KLSX 310902 AAA
TAFUIN
TAF AMD
KUIN 310902Z 3109/0106 13003KT 3SM BR SKC
      TEMPO 3110/3113 1SM BR BKN005
     FM311300 15005KT 5SM BR FEW008
     FM311400 18007KT P6SM SCT040
     FM010100 16005KT P6SM SCT250=

USA.gov is the U.S. government's official web portal to all federal, state and local government web resources and services.